sensor_id;sensor_type;location;lat;lon;timestamp;P1;durP1;ratioP1;P2;durP2;ratioP2
35835;SDS011;21955;50.580;7.228;2022-11-09T00:00:45;3.42;;;1.50;;
35835;SDS011;21955;50.580;7.228;2022-11-09T00:03:15;4.00;;;1.67;;
35835;SDS011;21955;50.580;7.228;2022-11-09T00:05:42;4.70;;;1.92;;
35835;SDS011;21955;50.580;7.228;2022-11-09T00:08:10;2.53;;;1.60;;
35835;SDS011;21955;50.580;7.228;2022-11-09T00:10:37;4.18;;;1.63;;
35835;SDS011;21955;50.580;7.228;2022-11-09T00:13:05;3.47;;;1.70;;
35835;SDS011;21955;50.580;7.228;2022-11-09T00:15:32;3.65;;;1.63;;
35835;SDS011;21955;50.580;7.228;2022-11-09T00:17:59;4.70;;;1.73;;
35835;SDS011;21955;50.580;7.228;2022-11-09T00:20:29;3.35;;;1.60;;
35835;SDS011;21955;50.580;7.228;2022-11-09T00:22:56;3.30;;;1.60;;
35835;SDS011;21955;50.580;7.228;2022-11-09T00:25:23;4.72;;;1.77;;
35835;SDS011;21955;50.580;7.228;2022-11-09T00:27:51;3.92;;;1.60;;
35835;SDS011;21955;50.580;7.228;2022-11-09T00:30:18;4.05;;;1.80;;
35835;SDS011;21955;50.580;7.228;2022-11-09T00:32:45;3.45;;;1.67;;
35835;SDS011;21955;50.580;7.228;2022-11-09T00:35:13;3.88;;;1.70;;
35835;SDS011;21955;50.580;7.228;2022-11-09T00:37:41;3.28;;;1.60;;
35835;SDS011;21955;50.580;7.228;2022-11-09T00:40:09;4.32;;;1.55;;
35835;SDS011;21955;50.580;7.228;2022-11-09T00:42:37;4.47;;;1.90;;
35835;SDS011;21955;50.580;7.228;2022-11-09T00:45:04;4.13;;;2.05;;
35835;SDS011;21955;50.580;7.228;2022-11-09T00:47:32;3.50;;;1.75;;
35835;SDS011;21955;50.580;7.228;2022-11-09T00:49:59;3.88;;;1.80;;
35835;SDS011;21955;50.580;7.228;2022-11-09T00:52:26;4.15;;;1.65;;
35835;SDS011;21955;50.580;7.228;2022-11-09T00:54:55;6.00;;;2.00;;
35835;SDS011;21955;50.580;7.228;2022-11-09T00:57:22;4.37;;;1.67;;
35835;SDS011;21955;50.580;7.228;2022-11-09T00:59:49;3.63;;;1.75;;
35835;SDS011;21955;50.580;7.228;2022-11-09T01:02:17;3.38;;;1.60;;
35835;SDS011;21955;50.580;7.228;2022-11-09T01:04:44;2.67;;;1.40;;
35835;SDS011;21955;50.580;7.228;2022-11-09T01:07:11;3.83;;;1.70;;
35835;SDS011;21955;50.580;7.228;2022-11-09T01:09:38;3.55;;;1.60;;
35835;SDS011;21955;50.580;7.228;2022-11-09T01:12:07;4.75;;;1.95;;
35835;SDS011;21955;50.580;7.228;2022-11-09T01:14:35;3.38;;;1.80;;
35835;SDS011;21955;50.580;7.228;2022-11-09T01:17:02;3.58;;;1.80;;
35835;SDS011;21955;50.580;7.228;2022-11-09T01:19:30;3.30;;;1.52;;
35835;SDS011;21955;50.580;7.228;2022-11-09T01:21:57;3.53;;;1.75;;
35835;SDS011;21955;50.580;7.228;2022-11-09T01:24:24;4.18;;;1.90;;
35835;SDS011;21955;50.580;7.228;2022-11-09T01:26:51;4.10;;;1.70;;
35835;SDS011;21955;50.580;7.228;2022-11-09T01:29:19;3.55;;;1.67;;
35835;SDS011;21955;50.580;7.228;2022-11-09T01:31:46;4.00;;;1.70;;
35835;SDS011;21955;50.580;7.228;2022-11-09T01:34:13;3.35;;;1.52;;
35835;SDS011;21955;50.580;7.228;2022-11-09T01:36:41;3.30;;;1.60;;
35835;SDS011;21955;50.580;7.228;2022-11-09T01:39:09;2.85;;;1.70;;
35835;SDS011;21955;50.580;7.228;2022-11-09T01:41:36;4.32;;;1.65;;
35835;SDS011;21955;50.580;7.228;2022-11-09T01:44:09;4.30;;;1.65;;
35835;SDS011;21955;50.580;7.228;2022-11-09T01:46:39;5.30;;;1.80;;
35835;SDS011;21955;50.580;7.228;2022-11-09T01:49:10;5.47;;;1.90;;
35835;SDS011;21955;50.580;7.228;2022-11-09T01:51:38;3.35;;;1.60;;
35835;SDS011;21955;50.580;7.228;2022-11-09T01:54:09;4.22;;;1.42;;
35835;SDS011;21955;50.580;7.228;2022-11-09T01:56:38;4.25;;;1.55;;
35835;SDS011;21955;50.580;7.228;2022-11-09T01:59:06;3.60;;;1.77;;
35835;SDS011;21955;50.580;7.228;2022-11-09T02:01:35;3.50;;;1.63;;
35835;SDS011;21955;50.580;7.228;2022-11-09T02:04:05;5.40;;;1.70;;
35835;SDS011;21955;50.580;7.228;2022-11-09T02:06:32;2.72;;;1.60;;
35835;SDS011;21955;50.580;7.228;2022-11-09T02:09:01;2.88;;;1.50;;
35835;SDS011;21955;50.580;7.228;2022-11-09T02:11:29;3.65;;;1.63;;
35835;SDS011;21955;50.580;7.228;2022-11-09T02:13:57;3.55;;;1.85;;
35835;SDS011;21955;50.580;7.228;2022-11-09T02:16:25;3.13;;;1.60;;
35835;SDS011;21955;50.580;7.228;2022-11-09T02:18:54;2.80;;;1.50;;
35835;SDS011;21955;50.580;7.228;2022-11-09T02:21:23;3.78;;;1.40;;
35835;SDS011;21955;50.580;7.228;2022-11-09T02:23:51;2.92;;;1.60;;
35835;SDS011;21955;50.580;7.228;2022-11-09T02:26:20;2.80;;;1.50;;
35835;SDS011;21955;50.580;7.228;2022-11-09T02:28:50;3.05;;;1.40;;
35835;SDS011;21955;50.580;7.228;2022-11-09T02:31:18;2.85;;;1.40;;
35835;SDS011;21955;50.580;7.228;2022-11-09T02:33:52;3.38;;;1.48;;
35835;SDS011;21955;50.580;7.228;2022-11-09T02:36:20;3.22;;;1.13;;
35835;SDS011;21955;50.580;7.228;2022-11-09T02:38:49;2.40;;;1.40;;
35835;SDS011;21955;50.580;7.228;2022-11-09T02:41:16;2.88;;;1.40;;
35835;SDS011;21955;50.580;7.228;2022-11-09T02:43:44;2.78;;;1.50;;
35835;SDS011;21955;50.580;7.228;2022-11-09T02:46:11;3.95;;;1.30;;
35835;SDS011;21955;50.580;7.228;2022-11-09T02:48:39;3.72;;;1.45;;
35835;SDS011;21955;50.580;7.228;2022-11-09T02:51:06;2.35;;;1.30;;
35835;SDS011;21955;50.580;7.228;2022-11-09T02:53:33;2.85;;;1.30;;
35835;SDS011;21955;50.580;7.228;2022-11-09T02:56:01;2.50;;;1.20;;
35835;SDS011;21955;50.580;7.228;2022-11-09T02:58:28;2.22;;;1.30;;
35835;SDS011;21955;50.580;7.228;2022-11-09T03:00:56;2.95;;;1.30;;
35835;SDS011;21955;50.580;7.228;2022-11-09T03:03:23;3.30;;;1.30;;
35835;SDS011;21955;50.580;7.228;2022-11-09T03:05:50;1.83;;;1.30;;
35835;SDS011;21955;50.580;7.228;2022-11-09T03:08:17;2.72;;;1.23;;
35835;SDS011;21955;50.580;7.228;2022-11-09T03:10:44;4.28;;;1.50;;
35835;SDS011;21955;50.580;7.228;2022-11-09T03:13:12;2.25;;;1.30;;
35835;SDS011;21955;50.580;7.228;2022-11-09T03:15:39;2.58;;;1.05;;
35835;SDS011;21955;50.580;7.228;2022-11-09T03:18:06;2.33;;;1.20;;
35835;SDS011;21955;50.580;7.228;2022-11-09T03:20:33;2.83;;;1.23;;
35835;SDS011;21955;50.580;7.228;2022-11-09T03:23:01;2.25;;;1.35;;
35835;SDS011;21955;50.580;7.228;2022-11-09T03:25:28;3.35;;;1.45;;
35835;SDS011;21955;50.580;7.228;2022-11-09T03:27:56;3.33;;;1.30;;
35835;SDS011;21955;50.580;7.228;2022-11-09T03:30:24;3.60;;;1.30;;
35835;SDS011;21955;50.580;7.228;2022-11-09T03:32:56;2.08;;;1.30;;
35835;SDS011;21955;50.580;7.228;2022-11-09T03:35:24;3.40;;;1.15;;
35835;SDS011;21955;50.580;7.228;2022-11-09T03:37:51;3.13;;;1.10;;
35835;SDS011;21955;50.580;7.228;2022-11-09T03:40:19;4.73;;;1.20;;
35835;SDS011;21955;50.580;7.228;2022-11-09T03:42:47;1.92;;;1.00;;
35835;SDS011;21955;50.580;7.228;2022-11-09T03:45:14;3.50;;;1.10;;
35835;SDS011;21955;50.580;7.228;2022-11-09T03:47:43;2.83;;;1.33;;
35835;SDS011;21955;50.580;7.228;2022-11-09T03:50:11;1.65;;;1.00;;
35835;SDS011;21955;50.580;7.228;2022-11-09T03:52:39;2.60;;;1.17;;
35835;SDS011;21955;50.580;7.228;2022-11-09T03:55:06;3.20;;;1.10;;
35835;SDS011;21955;50.580;7.228;2022-11-09T03:57:33;3.72;;;1.30;;
35835;SDS011;21955;50.580;7.228;2022-11-09T04:00:00;2.75;;;1.08;;
35835;SDS011;21955;50.580;7.228;2022-11-09T04:02:28;2.00;;;1.10;;
35835;SDS011;21955;50.580;7.228;2022-11-09T04:04:56;4.00;;;1.30;;
35835;SDS011;21955;50.580;7.228;2022-11-09T04:07:26;2.55;;;1.10;;
35835;SDS011;21955;50.580;7.228;2022-11-09T04:09:53;2.92;;;1.10;;
35835;SDS011;21955;50.580;7.228;2022-11-09T04:12:20;3.50;;;1.10;;
35835;SDS011;21955;50.580;7.228;2022-11-09T04:14:47;3.22;;;1.10;;
35835;SDS011;21955;50.580;7.228;2022-11-09T04:17:14;3.00;;;1.20;;
35835;SDS011;21955;50.580;7.228;2022-11-09T04:19:41;3.85;;;1.13;;
35835;SDS011;21955;50.580;7.228;2022-11-09T04:22:10;1.70;;;1.00;;
35835;SDS011;21955;50.580;7.228;2022-11-09T04:24:37;2.92;;;1.05;;
35835;SDS011;21955;50.580;7.228;2022-11-09T04:27:05;3.58;;;1.08;;
35835;SDS011;21955;50.580;7.228;2022-11-09T04:29:32;1.63;;;1.00;;
35835;SDS011;21955;50.580;7.228;2022-11-09T04:31:59;3.13;;;0.97;;
35835;SDS011;21955;50.580;7.228;2022-11-09T04:34:27;2.13;;;0.95;;
35835;SDS011;21955;50.580;7.228;2022-11-09T04:36:54;1.85;;;1.00;;
35835;SDS011;21955;50.580;7.228;2022-11-09T04:39:22;2.17;;;1.00;;
35835;SDS011;21955;50.580;7.228;2022-11-09T04:41:49;1.60;;;0.80;;
35835;SDS011;21955;50.580;7.228;2022-11-09T04:44:16;2.75;;;1.00;;
35835;SDS011;21955;50.580;7.228;2022-11-09T04:46:43;1.98;;;0.90;;
35835;SDS011;21955;50.580;7.228;2022-11-09T04:49:10;3.83;;;0.80;;
35835;SDS011;21955;50.580;7.228;2022-11-09T04:51:37;3.38;;;0.98;;
35835;SDS011;21955;50.580;7.228;2022-11-09T04:54:05;1.00;;;0.80;;
35835;SDS011;21955;50.580;7.228;2022-11-09T04:56:33;1.70;;;0.90;;
35835;SDS011;21955;50.580;7.228;2022-11-09T04:59:01;1.42;;;1.00;;
35835;SDS011;21955;50.580;7.228;2022-11-09T05:01:28;2.45;;;0.90;;
35835;SDS011;21955;50.580;7.228;2022-11-09T05:03:55;3.75;;;1.00;;
35835;SDS011;21955;50.580;7.228;2022-11-09T05:06:22;3.00;;;1.00;;
35835;SDS011;21955;50.580;7.228;2022-11-09T05:08:59;1.07;;;0.80;;
35835;SDS011;21955;50.580;7.228;2022-11-09T05:11:27;1.42;;;0.88;;
35835;SDS011;21955;50.580;7.228;2022-11-09T05:13:55;1.90;;;0.90;;
35835;SDS011;21955;50.580;7.228;2022-11-09T05:16:22;3.13;;;0.80;;
35835;SDS011;21955;50.580;7.228;2022-11-09T05:18:50;1.95;;;1.10;;
35835;SDS011;21955;50.580;7.228;2022-11-09T05:21:17;2.95;;;1.50;;
35835;SDS011;21955;50.580;7.228;2022-11-09T05:23:44;2.05;;;1.00;;
35835;SDS011;21955;50.580;7.228;2022-11-09T05:26:27;2.33;;;0.80;;
35835;SDS011;21955;50.580;7.228;2022-11-09T05:28:56;1.85;;;0.90;;
35835;SDS011;21955;50.580;7.228;2022-11-09T05:31:24;1.70;;;0.83;;
35835;SDS011;21955;50.580;7.228;2022-11-09T05:33:51;1.95;;;0.80;;
35835;SDS011;21955;50.580;7.228;2022-11-09T05:36:18;1.80;;;1.00;;
35835;SDS011;21955;50.580;7.228;2022-11-09T05:38:46;3.13;;;1.10;;
35835;SDS011;21955;50.580;7.228;2022-11-09T05:41:13;2.35;;;1.05;;
35835;SDS011;21955;50.580;7.228;2022-11-09T05:43:40;4.20;;;1.10;;
35835;SDS011;21955;50.580;7.228;2022-11-09T05:46:10;1.70;;;1.00;;
35835;SDS011;21955;50.580;7.228;2022-11-09T05:48:37;2.03;;;1.10;;
35835;SDS011;21955;50.580;7.228;2022-11-09T05:51:05;2.15;;;1.00;;
35835;SDS011;21955;50.580;7.228;2022-11-09T05:53:32;2.13;;;1.13;;
35835;SDS011;21955;50.580;7.228;2022-11-09T05:56:03;4.43;;;1.10;;
35835;SDS011;21955;50.580;7.228;2022-11-09T05:58:30;3.92;;;1.10;;
35835;SDS011;21955;50.580;7.228;2022-11-09T06:01:00;3.20;;;1.30;;
35835;SDS011;21955;50.580;7.228;2022-11-09T06:03:29;2.65;;;1.20;;
35835;SDS011;21955;50.580;7.228;2022-11-09T06:05:59;2.65;;;1.23;;
35835;SDS011;21955;50.580;7.228;2022-11-09T06:08:26;3.05;;;1.30;;
35835;SDS011;21955;50.580;7.228;2022-11-09T06:10:56;2.88;;;1.42;;
35835;SDS011;21955;50.580;7.228;2022-11-09T06:13:24;3.05;;;1.60;;
35835;SDS011;21955;50.580;7.228;2022-11-09T06:15:52;3.33;;;2.25;;
35835;SDS011;21955;50.580;7.228;2022-11-09T06:18:19;2.38;;;1.58;;
35835;SDS011;21955;50.580;7.228;2022-11-09T06:20:50;1.70;;;1.20;;
35835;SDS011;21955;50.580;7.228;2022-11-09T06:23:18;2.15;;;1.00;;
35835;SDS011;21955;50.580;7.228;2022-11-09T06:25:49;3.10;;;1.20;;
35835;SDS011;21955;50.580;7.228;2022-11-09T06:28:16;2.50;;;1.10;;
35835;SDS011;21955;50.580;7.228;2022-11-09T06:30:44;2.00;;;1.10;;
35835;SDS011;21955;50.580;7.228;2022-11-09T06:33:11;3.25;;;1.20;;
35835;SDS011;21955;50.580;7.228;2022-11-09T06:35:38;4.57;;;1.20;;
35835;SDS011;21955;50.580;7.228;2022-11-09T06:38:07;2.63;;;1.20;;
35835;SDS011;21955;50.580;7.228;2022-11-09T06:40:35;2.25;;;1.20;;
35835;SDS011;21955;50.580;7.228;2022-11-09T06:43:03;2.58;;;1.17;;
35835;SDS011;21955;50.580;7.228;2022-11-09T06:45:31;3.15;;;1.30;;
35835;SDS011;21955;50.580;7.228;2022-11-09T06:47:59;2.28;;;1.05;;
35835;SDS011;21955;50.580;7.228;2022-11-09T06:50:27;2.20;;;1.07;;
35835;SDS011;21955;50.580;7.228;2022-11-09T06:52:55;2.10;;;1.15;;
35835;SDS011;21955;50.580;7.228;2022-11-09T06:55:24;4.95;;;1.13;;
35835;SDS011;21955;50.580;7.228;2022-11-09T06:57:52;3.93;;;1.13;;
35835;SDS011;21955;50.580;7.228;2022-11-09T07:00:19;2.88;;;1.17;;
35835;SDS011;21955;50.580;7.228;2022-11-09T07:02:46;4.18;;;1.30;;
35835;SDS011;21955;50.580;7.228;2022-11-09T07:05:13;2.83;;;1.25;;
35835;SDS011;21955;50.580;7.228;2022-11-09T07:07:41;3.35;;;1.40;;
35835;SDS011;21955;50.580;7.228;2022-11-09T07:10:08;2.50;;;1.00;;
35835;SDS011;21955;50.580;7.228;2022-11-09T07:12:37;3.35;;;1.25;;
35835;SDS011;21955;50.580;7.228;2022-11-09T07:15:04;3.43;;;1.50;;
35835;SDS011;21955;50.580;7.228;2022-11-09T07:17:32;2.80;;;1.50;;
35835;SDS011;21955;50.580;7.228;2022-11-09T07:20:01;5.30;;;1.90;;
35835;SDS011;21955;50.580;7.228;2022-11-09T07:22:28;4.10;;;1.80;;
35835;SDS011;21955;50.580;7.228;2022-11-09T07:24:55;3.17;;;1.42;;
35835;SDS011;21955;50.580;7.228;2022-11-09T07:27:22;4.75;;;1.60;;
35835;SDS011;21955;50.580;7.228;2022-11-09T07:29:51;4.35;;;1.85;;
35835;SDS011;21955;50.580;7.228;2022-11-09T07:32:18;6.75;;;2.80;;
35835;SDS011;21955;50.580;7.228;2022-11-09T07:34:45;5.77;;;2.20;;
35835;SDS011;21955;50.580;7.228;2022-11-09T07:37:12;5.30;;;2.10;;
35835;SDS011;21955;50.580;7.228;2022-11-09T07:39:39;3.55;;;1.60;;
35835;SDS011;21955;50.580;7.228;2022-11-09T07:42:07;2.30;;;1.20;;
35835;SDS011;21955;50.580;7.228;2022-11-09T07:44:34;4.13;;;1.60;;
35835;SDS011;21955;50.580;7.228;2022-11-09T07:47:02;8.80;;;2.38;;
35835;SDS011;21955;50.580;7.228;2022-11-09T07:49:29;11.55;;;3.20;;
35835;SDS011;21955;50.580;7.228;2022-11-09T07:51:57;13.95;;;3.55;;
35835;SDS011;21955;50.580;7.228;2022-11-09T07:54:24;11.67;;;2.83;;
35835;SDS011;21955;50.580;7.228;2022-11-09T07:56:51;8.15;;;2.63;;
35835;SDS011;21955;50.580;7.228;2022-11-09T07:59:19;4.63;;;1.80;;
35835;SDS011;21955;50.580;7.228;2022-11-09T08:01:46;4.88;;;1.20;;
35835;SDS011;21955;50.580;7.228;2022-11-09T08:04:14;3.30;;;1.10;;
35835;SDS011;21955;50.580;7.228;2022-11-09T08:06:42;2.93;;;1.20;;
35835;SDS011;21955;50.580;7.228;2022-11-09T08:09:09;4.32;;;1.25;;
35835;SDS011;21955;50.580;7.228;2022-11-09T08:11:36;3.40;;;1.13;;
35835;SDS011;21955;50.580;7.228;2022-11-09T08:14:03;3.20;;;1.10;;
35835;SDS011;21955;50.580;7.228;2022-11-09T08:16:30;3.87;;;1.10;;
35835;SDS011;21955;50.580;7.228;2022-11-09T08:18:58;4.20;;;1.10;;
35835;SDS011;21955;50.580;7.228;2022-11-09T08:21:26;5.32;;;1.38;;
35835;SDS011;21955;50.580;7.228;2022-11-09T08:23:53;4.30;;;1.03;;
35835;SDS011;21955;50.580;7.228;2022-11-09T08:26:20;4.30;;;1.17;;
35835;SDS011;21955;50.580;7.228;2022-11-09T08:28:48;3.40;;;1.10;;
35835;SDS011;21955;50.580;7.228;2022-11-09T08:31:15;4.43;;;1.20;;
35835;SDS011;21955;50.580;7.228;2022-11-09T08:33:42;4.15;;;1.35;;
35835;SDS011;21955;50.580;7.228;2022-11-09T08:36:09;4.57;;;1.20;;
35835;SDS011;21955;50.580;7.228;2022-11-09T08:38:39;2.85;;;1.10;;
35835;SDS011;21955;50.580;7.228;2022-11-09T08:41:06;3.08;;;1.20;;
35835;SDS011;21955;50.580;7.228;2022-11-09T08:43:33;2.72;;;1.10;;
35835;SDS011;21955;50.580;7.228;2022-11-09T08:46:01;3.17;;;0.90;;
35835;SDS011;21955;50.580;7.228;2022-11-09T08:48:28;3.60;;;0.80;;
35835;SDS011;21955;50.580;7.228;2022-11-09T08:50:56;1.55;;;0.70;;
35835;SDS011;21955;50.580;7.228;2022-11-09T08:53:23;1.33;;;0.70;;
35835;SDS011;21955;50.580;7.228;2022-11-09T08:55:52;2.03;;;0.60;;
35835;SDS011;21955;50.580;7.228;2022-11-09T08:58:19;2.60;;;0.68;;
35835;SDS011;21955;50.580;7.228;2022-11-09T09:00:47;2.05;;;0.75;;
35835;SDS011;21955;50.580;7.228;2022-11-09T09:03:14;2.83;;;0.70;;
35835;SDS011;21955;50.580;7.228;2022-11-09T09:05:41;2.65;;;0.52;;
35835;SDS011;21955;50.580;7.228;2022-11-09T09:08:09;1.73;;;0.60;;
35835;SDS011;21955;50.580;7.228;2022-11-09T09:10:39;1.90;;;0.57;;
35835;SDS011;21955;50.580;7.228;2022-11-09T09:13:07;1.38;;;0.50;;
35835;SDS011;21955;50.580;7.228;2022-11-09T09:15:34;2.17;;;0.60;;
35835;SDS011;21955;50.580;7.228;2022-11-09T09:18:02;4.30;;;0.80;;
35835;SDS011;21955;50.580;7.228;2022-11-09T09:20:29;2.53;;;0.50;;
35835;SDS011;21955;50.580;7.228;2022-11-09T09:22:56;1.80;;;0.65;;
35835;SDS011;21955;50.580;7.228;2022-11-09T09:25:24;1.88;;;0.60;;
35835;SDS011;21955;50.580;7.228;2022-11-09T09:27:51;2.40;;;0.60;;
35835;SDS011;21955;50.580;7.228;2022-11-09T09:30:20;3.30;;;0.60;;
35835;SDS011;21955;50.580;7.228;2022-11-09T09:32:47;2.55;;;0.50;;
35835;SDS011;21955;50.580;7.228;2022-11-09T09:35:14;1.88;;;0.43;;
35835;SDS011;21955;50.580;7.228;2022-11-09T09:37:41;1.88;;;0.57;;
35835;SDS011;21955;50.580;7.228;2022-11-09T09:40:11;1.08;;;0.50;;
35835;SDS011;21955;50.580;7.228;2022-11-09T09:42:46;1.35;;;0.40;;
35835;SDS011;21955;50.580;7.228;2022-11-09T09:45:14;0.82;;;0.40;;
35835;SDS011;21955;50.580;7.228;2022-11-09T09:47:47;2.28;;;0.75;;
35835;SDS011;21955;50.580;7.228;2022-11-09T09:50:17;1.90;;;0.60;;
35835;SDS011;21955;50.580;7.228;2022-11-09T09:52:47;1.77;;;0.50;;
35835;SDS011;21955;50.580;7.228;2022-11-09T09:55:17;1.75;;;0.60;;
35835;SDS011;21955;50.580;7.228;2022-11-09T09:57:45;2.67;;;0.60;;
35835;SDS011;21955;50.580;7.228;2022-11-09T10:00:17;4.32;;;0.85;;
35835;SDS011;21955;50.580;7.228;2022-11-09T10:02:46;3.42;;;0.60;;
35835;SDS011;21955;50.580;7.228;2022-11-09T10:05:14;2.17;;;0.57;;
35835;SDS011;21955;50.580;7.228;2022-11-09T10:07:43;2.75;;;0.65;;
35835;SDS011;21955;50.580;7.228;2022-11-09T10:10:16;2.15;;;0.70;;
35835;SDS011;21955;50.580;7.228;2022-11-09T10:12:48;2.22;;;0.70;;
35835;SDS011;21955;50.580;7.228;2022-11-09T10:15:22;2.10;;;0.70;;
35835;SDS011;21955;50.580;7.228;2022-11-09T10:17:56;3.15;;;0.70;;
35835;SDS011;21955;50.580;7.228;2022-11-09T10:20:31;4.18;;;0.70;;
35835;SDS011;21955;50.580;7.228;2022-11-09T10:23:14;1.75;;;0.63;;
35835;SDS011;21955;50.580;7.228;2022-11-09T10:25:45;2.50;;;1.20;;
35835;SDS011;21955;50.580;7.228;2022-11-09T10:28:13;1.50;;;0.80;;
35835;SDS011;21955;50.580;7.228;2022-11-09T10:30:41;2.72;;;0.90;;
35835;SDS011;21955;50.580;7.228;2022-11-09T10:33:12;2.22;;;0.68;;
35835;SDS011;21955;50.580;7.228;2022-11-09T10:35:42;3.22;;;0.90;;
35835;SDS011;21955;50.580;7.228;2022-11-09T10:38:12;3.97;;;0.80;;
35835;SDS011;21955;50.580;7.228;2022-11-09T10:40:41;4.60;;;0.82;;
35835;SDS011;21955;50.580;7.228;2022-11-09T10:43:12;3.00;;;0.80;;
35835;SDS011;21955;50.580;7.228;2022-11-09T10:45:40;2.88;;;0.75;;
35835;SDS011;21955;50.580;7.228;2022-11-09T10:48:09;2.25;;;0.60;;
35835;SDS011;21955;50.580;7.228;2022-11-09T10:50:38;3.38;;;0.60;;
35835;SDS011;21955;50.580;7.228;2022-11-09T10:53:11;2.85;;;0.73;;
35835;SDS011;21955;50.580;7.228;2022-11-09T10:55:48;4.47;;;0.80;;
35835;SDS011;21955;50.580;7.228;2022-11-09T10:58:24;4.73;;;0.80;;
35835;SDS011;21955;50.580;7.228;2022-11-09T11:00:59;2.50;;;0.85;;
35835;SDS011;21955;50.580;7.228;2022-11-09T11:03:27;2.53;;;0.68;;
35835;SDS011;21955;50.580;7.228;2022-11-09T11:05:57;4.27;;;0.93;;
35835;SDS011;21955;50.580;7.228;2022-11-09T11:08:28;2.20;;;0.80;;
35835;SDS011;21955;50.580;7.228;2022-11-09T11:11:16;4.38;;;0.80;;
35835;SDS011;21955;50.580;7.228;2022-11-09T11:13:44;3.45;;;1.00;;
35835;SDS011;21955;50.580;7.228;2022-11-09T11:16:23;4.07;;;0.90;;
35835;SDS011;21955;50.580;7.228;2022-11-09T11:18:51;4.57;;;1.00;;
35835;SDS011;21955;50.580;7.228;2022-11-09T11:21:20;3.40;;;1.05;;
35835;SDS011;21955;50.580;7.228;2022-11-09T11:24:02;5.05;;;0.90;;
35835;SDS011;21955;50.580;7.228;2022-11-09T11:26:32;4.90;;;1.00;;
35835;SDS011;21955;50.580;7.228;2022-11-09T11:29:00;4.25;;;1.02;;
35835;SDS011;21955;50.580;7.228;2022-11-09T11:31:30;7.05;;;1.50;;
35835;SDS011;21955;50.580;7.228;2022-11-09T11:33:58;3.45;;;0.80;;
35835;SDS011;21955;50.580;7.228;2022-11-09T11:36:32;3.53;;;1.00;;
35835;SDS011;21955;50.580;7.228;2022-11-09T11:39:05;3.43;;;1.00;;
35835;SDS011;21955;50.580;7.228;2022-11-09T11:41:39;6.10;;;1.17;;
35835;SDS011;21955;50.580;7.228;2022-11-09T11:44:11;3.85;;;1.00;;
35835;SDS011;21955;50.580;7.228;2022-11-09T11:46:44;3.38;;;0.90;;
35835;SDS011;21955;50.580;7.228;2022-11-09T11:52:00;3.80;;;0.93;;
35835;SDS011;21955;50.580;7.228;2022-11-09T11:54:33;4.07;;;0.80;;
35835;SDS011;21955;50.580;7.228;2022-11-09T11:57:06;2.80;;;0.80;;
35835;SDS011;21955;50.580;7.228;2022-11-09T11:59:40;4.53;;;1.00;;
35835;SDS011;21955;50.580;7.228;2022-11-09T12:04:58;4.10;;;0.80;;
35835;SDS011;21955;50.580;7.228;2022-11-09T12:07:32;8.25;;;1.20;;
35835;SDS011;21955;50.580;7.228;2022-11-09T12:10:08;4.35;;;0.95;;
35835;SDS011;21955;50.580;7.228;2022-11-09T12:12:40;5.53;;;0.98;;
35835;SDS011;21955;50.580;7.228;2022-11-09T12:15:18;3.40;;;0.90;;
35835;SDS011;21955;50.580;7.228;2022-11-09T12:17:49;4.15;;;0.80;;
35835;SDS011;21955;50.580;7.228;2022-11-09T12:20:20;2.35;;;0.80;;
35835;SDS011;21955;50.580;7.228;2022-11-09T12:22:53;3.95;;;0.98;;
35835;SDS011;21955;50.580;7.228;2022-11-09T12:25:23;3.83;;;0.80;;
35835;SDS011;21955;50.580;7.228;2022-11-09T12:28:05;4.65;;;1.35;;
35835;SDS011;21955;50.580;7.228;2022-11-09T12:30:42;5.15;;;1.08;;
35835;SDS011;21955;50.580;7.228;2022-11-09T12:33:12;3.70;;;0.95;;
35835;SDS011;21955;50.580;7.228;2022-11-09T12:35:42;3.42;;;0.80;;
35835;SDS011;21955;50.580;7.228;2022-11-09T12:38:14;3.25;;;0.77;;
35835;SDS011;21955;50.580;7.228;2022-11-09T12:40:43;3.35;;;0.90;;
35835;SDS011;21955;50.580;7.228;2022-11-09T12:43:13;3.67;;;0.95;;
35835;SDS011;21955;50.580;7.228;2022-11-09T12:45:42;4.55;;;0.90;;
35835;SDS011;21955;50.580;7.228;2022-11-09T12:48:20;5.13;;;1.00;;
35835;SDS011;21955;50.580;7.228;2022-11-09T12:50:48;6.30;;;1.20;;
35835;SDS011;21955;50.580;7.228;2022-11-09T12:53:18;4.57;;;0.90;;
35835;SDS011;21955;50.580;7.228;2022-11-09T12:55:46;4.20;;;1.10;;
35835;SDS011;21955;50.580;7.228;2022-11-09T12:58:20;3.10;;;1.00;;
35835;SDS011;21955;50.580;7.228;2022-11-09T13:00:49;5.97;;;1.63;;
35835;SDS011;21955;50.580;7.228;2022-11-09T13:03:18;6.15;;;1.70;;
35835;SDS011;21955;50.580;7.228;2022-11-09T13:05:46;3.63;;;0.80;;
35835;SDS011;21955;50.580;7.228;2022-11-09T13:08:15;4.30;;;0.80;;
35835;SDS011;21955;50.580;7.228;2022-11-09T13:10:44;6.00;;;1.00;;
35835;SDS011;21955;50.580;7.228;2022-11-09T13:13:19;5.63;;;1.00;;
35835;SDS011;21955;50.580;7.228;2022-11-09T13:16:03;4.22;;;1.42;;
35835;SDS011;21955;50.580;7.228;2022-11-09T13:18:45;4.05;;;1.00;;
35835;SDS011;21955;50.580;7.228;2022-11-09T13:26:55;4.95;;;1.00;;
35835;SDS011;21955;50.580;7.228;2022-11-09T13:29:24;6.72;;;1.45;;
35835;SDS011;21955;50.580;7.228;2022-11-09T13:34:46;4.10;;;1.10;;
35835;SDS011;21955;50.580;7.228;2022-11-09T13:40:00;5.25;;;1.10;;
35835;SDS011;21955;50.580;7.228;2022-11-09T13:42:29;2.75;;;0.80;;
35835;SDS011;21955;50.580;7.228;2022-11-09T13:47:52;4.00;;;1.00;;
35835;SDS011;21955;50.580;7.228;2022-11-09T13:50:20;6.65;;;1.00;;
35835;SDS011;21955;50.580;7.228;2022-11-09T13:52:49;5.57;;;1.05;;
35835;SDS011;21955;50.580;7.228;2022-11-09T13:55:22;5.00;;;1.10;;
35835;SDS011;21955;50.580;7.228;2022-11-09T13:57:50;3.65;;;0.80;;
35835;SDS011;21955;50.580;7.228;2022-11-09T14:00:18;6.68;;;1.08;;
35835;SDS011;21955;50.580;7.228;2022-11-09T14:02:54;6.20;;;1.08;;
35835;SDS011;21955;50.580;7.228;2022-11-09T14:05:22;2.60;;;0.90;;
35835;SDS011;21955;50.580;7.228;2022-11-09T14:07:49;4.45;;;1.15;;
35835;SDS011;21955;50.580;7.228;2022-11-09T14:10:18;7.70;;;1.02;;
35835;SDS011;21955;50.580;7.228;2022-11-09T14:12:48;5.20;;;1.10;;
35835;SDS011;21955;50.580;7.228;2022-11-09T14:15:23;4.60;;;1.00;;
35835;SDS011;21955;50.580;7.228;2022-11-09T14:17:58;5.60;;;1.25;;
35835;SDS011;21955;50.580;7.228;2022-11-09T14:20:30;5.30;;;1.20;;
35835;SDS011;21955;50.580;7.228;2022-11-09T14:23:00;3.25;;;1.00;;
35835;SDS011;21955;50.580;7.228;2022-11-09T14:25:28;4.93;;;1.02;;
35835;SDS011;21955;50.580;7.228;2022-11-09T14:27:55;4.00;;;1.00;;
35835;SDS011;21955;50.580;7.228;2022-11-09T14:30:26;4.30;;;1.08;;
35835;SDS011;21955;50.580;7.228;2022-11-09T14:32:53;5.40;;;1.20;;
35835;SDS011;21955;50.580;7.228;2022-11-09T14:35:22;3.17;;;0.80;;
35835;SDS011;21955;50.580;7.228;2022-11-09T14:37:50;3.70;;;0.90;;
35835;SDS011;21955;50.580;7.228;2022-11-09T14:40:19;5.28;;;1.08;;
35835;SDS011;21955;50.580;7.228;2022-11-09T14:42:48;4.97;;;1.02;;
35835;SDS011;21955;50.580;7.228;2022-11-09T14:45:17;2.53;;;0.90;;
35835;SDS011;21955;50.580;7.228;2022-11-09T14:47:46;4.82;;;1.00;;
35835;SDS011;21955;50.580;7.228;2022-11-09T14:50:15;7.32;;;1.00;;
35835;SDS011;21955;50.580;7.228;2022-11-09T14:52:43;5.03;;;0.88;;
35835;SDS011;21955;50.580;7.228;2022-11-09T14:55:11;3.87;;;1.10;;
35835;SDS011;21955;50.580;7.228;2022-11-09T14:57:42;4.20;;;0.82;;
35835;SDS011;21955;50.580;7.228;2022-11-09T15:00:22;6.47;;;0.98;;
35835;SDS011;21955;50.580;7.228;2022-11-09T15:02:53;4.37;;;1.07;;
35835;SDS011;21955;50.580;7.228;2022-11-09T15:05:28;7.60;;;1.15;;
35835;SDS011;21955;50.580;7.228;2022-11-09T15:07:55;7.73;;;1.30;;
35835;SDS011;21955;50.580;7.228;2022-11-09T15:10:23;6.10;;;1.40;;
35835;SDS011;21955;50.580;7.228;2022-11-09T15:12:55;4.20;;;1.30;;
35835;SDS011;21955;50.580;7.228;2022-11-09T15:15:24;5.53;;;1.60;;
35835;SDS011;21955;50.580;7.228;2022-11-09T15:17:53;5.78;;;1.27;;